createdAt,value
2023-04-15T08:01:33.011Z,19.4
2023-04-15T08:06:32.552Z,13.3
2023-04-15T08:11:32.024Z,10.5
2023-04-15T08:16:31.584Z,5
2023-04-15T08:21:31.125Z,10.8
2023-04-15T08:26:30.625Z,3.6
2023-04-15T08:31:30.242Z,5.1
2023-04-15T08:36:29.675Z,5.6
2023-04-15T08:41:29.184Z,4.5
2023-04-15T08:46:28.815Z,2.8
2023-04-15T08:51:28.264Z,4.2
2023-04-15T08:56:27.876Z,2.6
2023-04-15T09:01:27.404Z,4.4
2023-04-15T09:06:26.896Z,4
2023-04-15T09:11:26.470Z,3.6
2023-04-15T09:51:23.140Z,10.6
2023-04-15T09:56:22.620Z,13.7
2023-04-15T10:01:22.222Z,2.3
2023-04-15T10:06:21.757Z,2.9
2023-04-15T10:11:21.395Z,10.2
2023-04-15T10:21:20.572Z,1.9
2023-04-15T10:26:20.182Z,3.1
2023-04-15T10:31:19.844Z,2.3
2023-04-15T10:36:19.412Z,1.6
2023-04-15T10:41:20.481Z,3.1
2023-04-15T10:46:18.673Z,1
2023-04-15T10:51:18.218Z,1.5
2023-04-15T10:56:17.841Z,1.7
2023-04-15T11:01:17.450Z,0.7
2023-04-15T11:06:17.067Z,2.9
2023-04-15T11:11:16.670Z,1.4
2023-04-15T13:36:05.065Z,4.6
2023-04-15T13:41:04.668Z,9.5
2023-04-15T13:46:04.350Z,24.7
2023-04-15T13:51:03.887Z,2.7
2023-04-15T13:56:03.498Z,4.9
2023-04-15T14:01:05.239Z,5.3
2023-04-15T14:06:02.704Z,4.1
2023-04-15T14:11:02.318Z,3.1
2023-04-15T14:16:01.948Z,5.1
2023-04-15T14:21:01.582Z,2.9
2023-04-15T14:26:01.203Z,7.5
2023-04-15T14:31:00.811Z,1.7
2023-04-15T14:36:00.436Z,2.6
2023-04-15T14:41:00.007Z,3.9
2023-04-15T14:45:59.667Z,2.6
2023-04-15T14:50:59.208Z,2.1
2023-04-15T14:55:58.762Z,2.1
2023-04-15T15:00:58.472Z,6.3
2023-04-15T15:05:58.082Z,3.9
2023-04-15T15:10:57.612Z,2
2023-04-15T15:15:57.236Z,3.1
2023-04-15T15:20:56.778Z,2.1
2023-04-15T15:25:56.440Z,4.8
2023-04-15T15:30:56.128Z,4.9
2023-04-15T15:35:55.616Z,3.3
2023-04-15T15:40:55.246Z,3
2023-04-15T15:45:54.800Z,4.2
2023-04-15T15:50:54.405Z,13.7
2023-04-15T15:55:54.133Z,7.4
2023-04-15T16:00:53.617Z,3.6
2023-04-15T16:05:53.126Z,4.9
2023-04-15T16:10:52.727Z,5.2
2023-04-15T16:15:52.297Z,8.6
2023-04-15T16:20:51.881Z,5.2
2023-04-15T16:25:51.433Z,5.4
2023-04-15T16:30:50.970Z,10.3
2023-04-15T16:35:50.540Z,14.2
2023-04-15T16:40:50.127Z,16.9
2023-04-15T16:45:49.678Z,19.6
2023-04-15T16:50:49.218Z,16.2
2023-04-15T16:55:48.788Z,6.9
2023-04-15T17:00:48.358Z,11.9
2023-04-15T17:05:47.966Z,13.5
2023-04-15T17:10:47.508Z,23
2023-04-15T17:15:47.072Z,19.2
2023-04-15T17:20:46.554Z,28.7
2023-04-15T17:25:46.017Z,28.6
2023-04-15T17:30:45.590Z,23.7
2023-04-15T17:35:45.056Z,20.4
2023-04-15T17:40:44.597Z,19
2023-04-15T17:45:44.095Z,22.9
2023-04-15T17:50:43.603Z,14.5
2023-04-15T17:55:43.129Z,12.3
2023-04-15T18:00:42.596Z,21
2023-04-15T18:05:42.805Z,20.2
2023-04-15T18:10:41.498Z,27
2023-04-15T18:15:40.986Z,34
2023-04-15T18:20:40.479Z,21.8
2023-04-15T18:25:40.021Z,46.7
2023-04-15T18:30:39.461Z,16
2023-04-15T18:35:38.969Z,13.7
2023-04-15T18:40:38.357Z,18.6
2023-04-15T18:45:37.828Z,29.1
2023-04-15T18:50:37.234Z,15.8
2023-04-15T18:55:36.726Z,16.4
2023-04-15T19:00:36.154Z,10
2023-04-15T19:05:35.597Z,13.6
2023-04-15T19:10:35.066Z,5.3
2023-04-15T19:15:34.484Z,3
2023-04-15T19:20:37.123Z,4.2
2023-04-15T19:25:33.395Z,4.1
2023-04-15T19:30:32.909Z,2.5
2023-04-15T19:35:32.300Z,2.9
2023-04-15T19:40:31.737Z,1.9
2023-04-15T19:45:31.196Z,2.1
2023-04-15T19:50:30.633Z,2.4
2023-04-15T19:55:30.078Z,1.6
2023-04-15T20:00:29.532Z,1.4
2023-04-15T20:05:28.970Z,1.8
2023-04-15T20:10:28.413Z,2.7
2023-04-15T20:15:27.799Z,3.2
2023-04-15T20:20:27.210Z,2.2
2023-04-15T20:25:26.601Z,2
2023-04-15T20:30:26.090Z,1.9
2023-04-15T20:35:25.488Z,3.8
2023-04-15T20:40:24.877Z,3.7
2023-04-15T20:45:24.317Z,5.5
2023-04-15T20:50:23.747Z,2.7
2023-04-15T20:55:23.188Z,3.8
2023-04-15T21:00:22.602Z,5
2023-04-15T21:05:21.987Z,7.3
2023-04-15T21:10:21.378Z,1.5
2023-04-15T21:15:20.842Z,4.3
2023-04-15T21:20:20.250Z,2.5
2023-04-15T21:25:19.664Z,2.7
2023-04-15T21:30:19.065Z,2.1
2023-04-15T21:35:18.394Z,2.5
2023-04-15T21:40:17.846Z,2
2023-04-15T21:45:17.232Z,1.8
2023-04-15T21:50:16.651Z,1.9
2023-04-15T21:55:16.055Z,3.1
2023-04-15T22:00:15.486Z,2
2023-04-15T22:05:14.892Z,1.5
2023-04-15T22:10:14.346Z,1.1
2023-04-15T22:15:13.768Z,1.5
2023-04-15T22:20:13.127Z,1.3
2023-04-15T22:25:12.506Z,0.7
2023-04-15T22:30:11.917Z,1.3
2023-04-15T22:35:11.362Z,0.8
2023-04-15T22:40:10.703Z,1.4
2023-04-15T22:45:10.152Z,1.3
2023-04-15T22:50:09.545Z,4
2023-04-15T22:55:08.976Z,2.4
2023-04-15T23:00:08.360Z,3.6
2023-04-15T23:05:12.971Z,2.3
2023-04-15T23:10:07.183Z,1.8
2023-04-15T23:15:06.635Z,1
2023-04-15T23:20:05.999Z,0.8
2023-04-15T23:25:05.428Z,1.2
2023-04-15T23:30:04.829Z,1.4
2023-04-15T23:35:04.266Z,1.1
2023-04-15T23:40:03.629Z,2.2
2023-04-15T23:45:03.134Z,2.2
2023-04-15T23:50:02.506Z,1.3
2023-04-15T23:55:01.933Z,1.5
